createdAt,value
2023-05-21T00:00:41.475Z,101165.13
2023-05-21T00:03:14.314Z,101161.84
2023-05-21T00:05:42.518Z,101170.09
2023-05-21T00:08:11.096Z,101169.53
2023-05-21T00:10:39.755Z,101168.13
2023-05-21T00:13:09.172Z,101168.38
2023-05-21T00:15:37.425Z,101177.72
2023-05-21T00:18:05.789Z,101168.91
2023-05-21T00:20:35.700Z,101172.47
2023-05-21T00:23:03.989Z,101170.81
2023-05-21T00:25:32.490Z,101170.44
2023-05-21T00:28:00.474Z,101169.03
2023-05-21T00:30:28.422Z,101169.00
2023-05-21T00:32:59.069Z,101168.09
2023-05-21T00:35:27.190Z,101166.44
2023-05-21T00:37:57.488Z,101170.16
2023-05-21T00:40:25.899Z,101170.69
2023-05-21T00:42:57.359Z,101165.16
2023-05-21T00:45:25.716Z,101165.63
2023-05-21T00:47:55.680Z,101167.84
2023-05-21T00:50:24.352Z,101168.84
2023-05-21T00:52:52.487Z,101171.47
2023-05-21T00:55:22.144Z,101165.31
2023-05-21T00:57:50.784Z,101172.88
2023-05-21T01:00:18.972Z,101172.56
2023-05-21T01:02:47.681Z,101170.00
2023-05-21T01:05:16.351Z,101168.75
2023-05-21T01:07:44.173Z,101175.22
2023-05-21T01:10:13.978Z,101170.84
2023-05-21T01:12:44.996Z,101173.91
2023-05-21T01:15:13.520Z,101168.13
2023-05-21T01:17:41.713Z,101171.84
2023-05-21T01:20:11.341Z,101172.03
2023-05-21T01:22:44.721Z,101164.28
2023-05-21T01:25:15.138Z,101168.84
2023-05-21T01:27:43.206Z,101170.44
2023-05-21T01:30:12.417Z,101172.75
2023-05-21T01:32:46.448Z,101171.22
2023-05-21T01:35:18.606Z,101176.38
2023-05-21T01:37:52.772Z,101172.22
2023-05-21T01:40:27.035Z,101171.19
2023-05-21T01:42:55.196Z,101171.00
2023-05-21T01:45:25.126Z,101179.16
2023-05-21T01:47:55.863Z,101174.16
2023-05-21T01:50:25.828Z,101180.81
2023-05-21T01:52:55.292Z,101174.38
2023-05-21T01:55:25.467Z,101171.16
2023-05-21T01:57:54.012Z,101169.31
2023-05-21T02:00:22.847Z,101178.03
2023-05-21T02:02:51.896Z,101170.25
2023-05-21T02:05:20.150Z,101166.78
2023-05-21T02:07:48.823Z,101163.31
2023-05-21T02:10:16.636Z,101167.44
2023-05-21T02:12:46.390Z,101175.28
2023-05-21T02:15:18.112Z,101161.97
2023-05-21T02:17:46.477Z,101163.00
2023-05-21T02:20:14.931Z,101166.19
2023-05-21T02:22:44.496Z,101167.16
2023-05-21T02:25:13.955Z,101161.25
2023-05-21T02:27:42.589Z,101163.97
2023-05-21T02:30:13.480Z,101160.72
2023-05-21T02:32:43.167Z,101162.16
2023-05-21T02:35:12.897Z,101164.28
2023-05-21T02:37:41.671Z,101164.22
2023-05-21T02:40:11.271Z,101162.78
2023-05-21T02:42:40.502Z,101165.28
2023-05-21T02:45:10.196Z,101173.88
2023-05-21T02:47:39.702Z,101173.38
2023-05-21T02:50:09.318Z,101173.38
2023-05-21T02:52:37.316Z,101174.44
2023-05-21T02:55:05.868Z,101167.16
2023-05-21T02:57:33.833Z,101177.84
2023-05-21T03:00:01.800Z,101174.53
2023-05-21T03:02:30.329Z,101171.56
2023-05-21T03:04:59.504Z,101167.00
2023-05-21T03:07:27.692Z,101164.97
2023-05-21T03:09:55.704Z,101167.78
2023-05-21T03:12:23.718Z,101166.13
2023-05-21T03:14:52.378Z,101164.97
2023-05-21T03:17:20.726Z,101167.78
2023-05-21T03:19:49.248Z,101166.19
2023-05-21T03:22:20.152Z,101174.78
2023-05-21T03:24:48.736Z,101168.59
2023-05-21T03:27:16.860Z,101171.91
2023-05-21T03:29:44.775Z,101161.09
2023-05-21T03:32:12.862Z,101160.09
2023-05-21T03:34:42.578Z,101159.66
2023-05-21T03:37:10.560Z,101161.88
2023-05-21T03:39:39.882Z,101160.06
2023-05-21T03:42:07.842Z,101158.22
2023-05-21T03:44:35.837Z,101165.16
2023-05-21T03:47:03.807Z,101157.31
2023-05-21T03:49:31.836Z,101165.88
2023-05-21T03:51:59.880Z,101165.72
2023-05-21T03:54:27.841Z,101166.13
2023-05-21T03:56:57.225Z,101164.56
2023-05-21T03:59:25.167Z,101159.50
2023-05-21T04:01:53.290Z,101159.25
2023-05-21T04:04:21.403Z,101161.28
2023-05-21T04:06:49.714Z,101165.72
2023-05-21T04:09:17.749Z,101159.00
2023-05-21T04:11:45.734Z,101158.25
2023-05-21T04:14:15.226Z,101152.97
2023-05-21T04:16:44.217Z,101156.81
2023-05-21T04:19:12.301Z,101159.16
2023-05-21T04:21:40.462Z,101155.59
2023-05-21T04:24:08.479Z,101157.03
2023-05-21T04:26:36.594Z,101155.41
2023-05-21T04:29:05.150Z,101161.22
2023-05-21T04:31:34.742Z,101152.78
2023-05-21T04:34:02.767Z,101153.34
2023-05-21T04:36:30.773Z,101141.59
2023-05-21T04:38:58.821Z,101141.91
2023-05-21T04:41:26.838Z,101141.97
2023-05-21T04:43:55.526Z,101145.25
2023-05-21T04:46:26.989Z,101148.59
2023-05-21T04:48:56.437Z,101156.28
2023-05-21T04:51:24.978Z,101156.88
2023-05-21T04:53:54.011Z,101153.66
2023-05-21T04:56:23.028Z,101149.81
2023-05-21T04:58:51.315Z,101146.59
2023-05-21T05:01:20.085Z,101145.75
2023-05-21T05:03:48.445Z,101147.47
2023-05-21T05:06:18.002Z,101143.09
2023-05-21T05:08:46.346Z,101145.63
2023-05-21T05:11:14.390Z,101144.56
2023-05-21T05:13:42.828Z,101144.84
2023-05-21T05:16:13.054Z,101150.63
2023-05-21T05:18:41.052Z,101143.56
2023-05-21T05:21:09.036Z,101145.25
2023-05-21T05:23:38.442Z,101149.34
2023-05-21T05:26:06.518Z,101153.50
2023-05-21T05:28:34.561Z,101147.50
2023-05-21T05:31:02.561Z,101155.16
2023-05-21T05:33:30.600Z,101159.00
2023-05-21T05:35:58.839Z,101154.09
2023-05-21T05:38:27.259Z,101152.22
2023-05-21T05:40:56.595Z,101147.56
2023-05-21T05:43:26.472Z,101147.84
2023-05-21T05:45:54.918Z,101135.47
2023-05-21T05:48:22.963Z,101135.50
2023-05-21T05:50:54.707Z,101135.53
2023-05-21T05:53:22.699Z,101130.31
2023-05-21T05:55:50.701Z,101133.06
2023-05-21T05:58:20.445Z,101133.38
2023-05-21T06:00:48.415Z,101137.19
2023-05-21T06:03:16.548Z,101135.56
2023-05-21T06:05:44.909Z,101129.53
2023-05-21T06:08:12.930Z,101130.63
2023-05-21T06:10:40.984Z,101127.63
2023-05-21T06:13:08.954Z,101125.72
2023-05-21T06:15:39.417Z,101126.84
2023-05-21T06:18:07.620Z,101128.19
2023-05-21T06:20:35.668Z,101126.28
2023-05-21T06:23:03.676Z,101124.88
2023-05-21T06:25:31.993Z,101119.38
2023-05-21T06:27:59.980Z,101129.00
2023-05-21T06:30:27.947Z,101124.03
2023-05-21T06:32:57.563Z,101118.00
2023-05-21T06:35:25.944Z,101122.94
2023-05-21T06:37:53.978Z,101115.22
2023-05-21T06:40:21.993Z,101116.59
2023-05-21T06:42:50.066Z,101118.47
2023-05-21T06:45:18.155Z,101119.56
2023-05-21T06:47:46.268Z,101118.16
2023-05-21T06:50:15.687Z,101112.34
2023-05-21T06:52:43.680Z,101116.69
2023-05-21T06:55:11.725Z,101111.69
2023-05-21T06:57:39.966Z,101119.91
2023-05-21T07:00:10.438Z,101112.72
2023-05-21T07:02:38.522Z,101113.22
2023-05-21T07:05:07.281Z,101111.81
2023-05-21T07:07:39.042Z,101111.56
2023-05-21T07:10:08.457Z,101112.03
2023-05-21T07:12:36.634Z,101113.09
2023-05-21T07:15:04.917Z,101116.41
2023-05-21T07:17:32.964Z,101105.06
2023-05-21T07:20:01.043Z,101110.56
2023-05-21T07:22:29.119Z,101115.44
2023-05-21T07:24:58.472Z,101120.03
2023-05-21T07:27:26.501Z,101115.59
2023-05-21T07:29:54.519Z,101118.91
2023-05-21T07:32:22.477Z,101119.38
2023-05-21T07:34:52.145Z,101115.44
2023-05-21T07:37:21.882Z,101119.53
2023-05-21T07:39:49.853Z,101114.50
2023-05-21T07:42:19.221Z,101119.09
2023-05-21T07:44:47.305Z,101119.34
2023-05-21T07:47:15.285Z,101115.69
2023-05-21T07:49:43.269Z,101113.97
2023-05-21T07:52:11.297Z,101115.28
2023-05-21T07:54:39.362Z,101110.84
2023-05-21T07:57:07.308Z,101107.47
2023-05-21T07:59:36.722Z,101103.56
2023-05-21T08:02:04.928Z,101110.41
2023-05-21T08:04:32.983Z,101107.31
2023-05-21T08:07:01.012Z,101106.50
2023-05-21T08:09:29.023Z,101108.13
2023-05-21T08:11:56.984Z,101109.63
2023-05-21T08:14:24.985Z,101100.72
2023-05-21T08:16:54.371Z,101103.06
2023-05-21T08:19:22.356Z,101105.34
2023-05-21T08:21:52.736Z,101103.00
2023-05-21T08:24:24.745Z,101103.97
2023-05-21T08:26:52.749Z,101095.06
2023-05-21T08:29:20.844Z,101091.09
2023-05-21T08:31:48.868Z,101088.16
2023-05-21T08:34:18.703Z,101093.00
2023-05-21T08:36:48.071Z,101092.38
2023-05-21T08:39:16.038Z,101095.06
2023-05-21T08:41:49.785Z,101092.31
2023-05-21T08:44:22.221Z,101087.81
2023-05-21T08:46:52.087Z,101092.25
2023-05-21T08:49:28.043Z,101090.94
2023-05-21T08:51:56.973Z,101091.25
2023-05-21T08:54:25.347Z,101085.56
2023-05-21T08:56:54.152Z,101090.66
2023-05-21T08:59:23.127Z,101091.31
2023-05-21T09:01:52.397Z,101091.97
2023-05-21T09:04:22.525Z,101088.81
2023-05-21T09:06:52.039Z,101091.03
2023-05-21T09:09:27.196Z,101086.84
2023-05-21T09:11:55.345Z,101099.44
2023-05-21T09:14:25.372Z,101083.66
2023-05-21T09:16:53.518Z,101086.00
2023-05-21T09:19:23.302Z,101085.53
2023-05-21T09:21:53.130Z,101082.19
2023-05-21T09:24:23.843Z,101080.00
2023-05-21T09:26:52.716Z,101075.19
2023-05-21T09:29:20.763Z,101072.63
2023-05-21T09:31:48.888Z,101077.34
2023-05-21T09:34:17.140Z,101083.31
2023-05-21T09:36:47.163Z,101080.06
2023-05-21T09:39:29.227Z,101082.06
2023-05-21T09:41:58.287Z,101080.13
2023-05-21T09:44:26.383Z,101076.41
2023-05-21T09:46:59.612Z,101069.00
2023-05-21T09:49:28.359Z,101071.94
2023-05-21T09:51:58.317Z,101074.19
2023-05-21T09:54:32.593Z,101064.75
2023-05-21T09:57:02.539Z,101058.63
2023-05-21T09:59:37.395Z,101060.13
2023-05-21T10:02:19.100Z,101067.56
2023-05-21T10:04:50.470Z,101062.50
2023-05-21T10:07:26.326Z,101059.28
2023-05-21T10:09:56.826Z,101067.44
2023-05-21T10:12:25.811Z,101055.06
2023-05-21T10:15:01.291Z,101061.03
2023-05-21T10:17:29.734Z,101053.41
2023-05-21T10:20:00.627Z,101054.34
2023-05-21T10:22:30.490Z,101053.06
2023-05-21T10:24:59.982Z,101046.38
2023-05-21T10:27:32.290Z,101044.28
2023-05-21T10:30:01.191Z,101055.38
2023-05-21T10:32:29.480Z,101043.16
2023-05-21T10:35:00.724Z,101045.94
2023-05-21T10:37:31.126Z,101044.31
2023-05-21T10:39:59.143Z,101043.19
2023-05-21T10:43:01.809Z,101045.97
2023-05-21T10:45:43.206Z,101047.59
2023-05-21T10:48:30.253Z,101033.94
2023-05-21T10:51:16.022Z,101029.38
2023-05-21T10:54:07.385Z,101030.03
2023-05-21T10:56:40.878Z,101032.34
2023-05-21T10:59:21.935Z,101027.16
2023-05-21T11:01:52.909Z,101027.16
2023-05-21T11:04:23.792Z,101021.72
2023-05-21T11:06:52.942Z,101024.72
2023-05-21T11:09:22.397Z,101020.28
2023-05-21T11:11:52.806Z,101028.13
2023-05-21T11:14:36.254Z,101025.19
2023-05-21T11:17:05.784Z,101024.03
2023-05-21T11:19:36.995Z,101012.44
2023-05-21T11:22:09.896Z,101011.94
2023-05-21T11:24:42.568Z,101015.56
2023-05-21T11:27:10.619Z,101010.16
2023-05-21T11:29:44.537Z,101012.44
2023-05-21T11:32:15.507Z,101014.75
2023-05-21T11:34:46.044Z,101008.84
2023-05-21T11:37:34.585Z,101004.72
2023-05-21T11:40:30.902Z,100999.47
2023-05-21T11:42:58.998Z,101000.09
2023-05-21T11:45:32.270Z,100998.91
2023-05-21T11:48:01.387Z,101006.91
2023-05-21T11:50:33.929Z,101008.66
2023-05-21T11:53:02.136Z,101002.16
2023-05-21T11:55:33.206Z,101001.94
2023-05-21T11:58:01.919Z,101006.59
2023-05-21T12:00:29.886Z,101014.06
2023-05-21T12:02:59.013Z,101009.31
2023-05-21T12:05:27.671Z,101007.06
2023-05-21T12:07:56.552Z,101006.31
2023-05-21T12:10:24.892Z,101009.25
2023-05-21T12:12:57.018Z,101010.13
2023-05-21T12:15:27.511Z,101007.63
2023-05-21T12:17:56.345Z,101017.69
2023-05-21T12:20:24.503Z,101013.53
2023-05-21T12:22:52.556Z,101011.22
2023-05-21T12:25:21.328Z,101003.75
2023-05-21T12:27:52.755Z,100997.56
2023-05-21T12:30:22.502Z,101005.97
2023-05-21T12:32:50.628Z,101006.94
2023-05-21T12:35:21.965Z,101005.81
2023-05-21T12:37:51.119Z,101008.06
2023-05-21T12:40:19.828Z,101002.63
2023-05-21T12:42:48.083Z,100995.75
2023-05-21T12:45:18.814Z,100999.97
2023-05-21T12:47:56.038Z,101002.53
2023-05-21T12:50:24.945Z,100997.16
2023-05-21T12:53:02.263Z,100997.06
2023-05-21T12:55:32.352Z,100992.47
2023-05-21T12:58:05.596Z,100991.25
2023-05-21T13:00:37.239Z,100988.66
2023-05-21T13:03:07.457Z,100982.41
2023-05-21T13:05:36.145Z,100984.53
2023-05-21T13:08:06.018Z,100995.03
2023-05-21T13:10:34.016Z,100992.28
2023-05-21T13:13:02.126Z,100994.59
2023-05-21T13:15:30.320Z,100985.88
2023-05-21T13:18:01.371Z,100983.91
2023-05-21T13:20:31.375Z,100975.25
2023-05-21T13:22:59.358Z,100968.63
2023-05-21T13:25:29.672Z,100970.34
2023-05-21T13:27:58.742Z,100966.69
2023-05-21T13:30:26.885Z,100969.31
2023-05-21T13:32:55.167Z,100961.66
2023-05-21T13:35:23.484Z,100964.56
2023-05-21T13:37:52.773Z,100969.00
2023-05-21T13:40:21.009Z,100961.28
2023-05-21T13:42:50.058Z,100958.16
2023-05-21T13:45:19.870Z,100962.97
2023-05-21T13:47:48.957Z,100962.28
2023-05-21T13:50:17.456Z,100968.66
2023-05-21T13:52:46.129Z,100969.22
2023-05-21T13:55:16.957Z,100959.63
2023-05-21T13:57:46.133Z,100954.06
2023-05-21T14:00:16.242Z,100959.34
2023-05-21T14:02:45.056Z,100965.97
2023-05-21T14:05:13.660Z,100951.28
2023-05-21T14:07:42.193Z,100952.72
2023-05-21T14:10:11.794Z,100956.44
2023-05-21T14:12:42.192Z,100948.34
2023-05-21T14:15:13.669Z,100954.03
2023-05-21T14:17:42.562Z,100955.56
2023-05-21T14:20:16.432Z,100955.19
2023-05-21T14:22:45.762Z,100960.47
2023-05-21T14:25:13.871Z,100956.59
2023-05-21T14:27:43.390Z,100955.19
2023-05-21T14:30:12.232Z,100951.91
2023-05-21T14:32:40.317Z,100962.59
2023-05-21T14:35:08.696Z,100955.28
2023-05-21T14:37:36.733Z,100949.81
2023-05-21T14:40:05.605Z,100951.66
2023-05-21T14:42:33.669Z,100952.13
2023-05-21T14:45:17.538Z,100954.56
2023-05-21T14:47:47.861Z,100950.34
2023-05-21T14:50:35.112Z,100949.75
2023-05-21T14:53:05.806Z,100948.69
2023-05-21T14:55:36.715Z,100941.44
2023-05-21T14:58:05.636Z,100939.19
2023-05-21T15:00:36.339Z,100941.31
2023-05-21T15:03:05.179Z,100949.06
2023-05-21T15:05:33.694Z,100944.66
2023-05-21T15:08:04.060Z,100940.16
2023-05-21T15:10:32.409Z,100935.06
2023-05-21T15:13:00.674Z,100936.47
2023-05-21T15:15:28.875Z,100941.31
2023-05-21T15:17:58.402Z,100934.25
2023-05-21T15:20:28.242Z,100942.03
2023-05-21T15:23:08.856Z,100933.66
2023-05-21T15:25:44.670Z,100936.72
2023-05-21T15:28:13.179Z,100937.41
2023-05-21T15:30:41.424Z,100943.13
2023-05-21T15:33:12.014Z,100941.13
2023-05-21T15:35:40.191Z,100941.53
2023-05-21T15:38:10.711Z,100940.13
2023-05-21T15:40:41.423Z,100935.78
2023-05-21T15:43:09.638Z,100931.44
2023-05-21T15:45:38.478Z,100936.53
2023-05-21T15:48:07.793Z,100920.28
2023-05-21T15:50:38.262Z,100924.88
2023-05-21T15:53:06.353Z,100919.75
2023-05-21T15:55:35.233Z,100919.09
2023-05-21T15:58:05.183Z,100921.63
2023-05-21T16:00:35.070Z,100929.03
2023-05-21T16:03:04.909Z,100914.22
2023-05-21T16:05:33.126Z,100912.31
2023-05-21T16:08:02.686Z,100902.28
2023-05-21T16:10:30.884Z,100895.38
2023-05-21T16:12:59.270Z,100898.19
2023-05-21T16:15:28.637Z,100904.97
2023-05-21T16:17:56.777Z,100905.34
2023-05-21T16:20:24.758Z,100897.91
2023-05-21T16:22:52.752Z,100887.91
2023-05-21T16:25:22.373Z,100893.13
2023-05-21T16:27:50.368Z,100892.81
2023-05-21T16:30:18.680Z,100881.94
2023-05-21T16:32:46.737Z,100884.75
2023-05-21T16:35:14.869Z,100889.25
2023-05-21T16:37:42.841Z,100888.47
2023-05-21T16:40:11.208Z,100878.25
2023-05-21T16:42:41.370Z,100880.91
2023-05-21T16:45:10.973Z,100878.53
2023-05-21T16:47:39.163Z,100886.34
2023-05-21T16:50:08.816Z,100883.75
2023-05-21T16:52:36.771Z,100882.00
2023-05-21T16:55:05.292Z,100870.31
2023-05-21T16:57:33.257Z,100874.19
2023-05-21T17:00:04.179Z,100875.34
2023-05-21T17:02:32.536Z,100876.47
2023-05-21T17:05:00.743Z,100884.44
2023-05-21T17:07:28.855Z,100877.75
2023-05-21T17:09:56.589Z,100882.03
2023-05-21T17:12:24.667Z,100883.16
2023-05-21T17:14:53.756Z,100877.63
2023-05-21T17:17:25.153Z,100879.03
2023-05-21T17:19:53.284Z,100868.34
2023-05-21T17:22:21.371Z,100879.53
2023-05-21T17:24:49.567Z,100872.78
2023-05-21T17:27:17.581Z,100872.56
2023-05-21T17:29:45.572Z,100875.47
2023-05-21T17:32:13.601Z,100873.63
2023-05-21T17:34:43.266Z,100877.34
2023-05-21T17:37:11.230Z,100880.25
2023-05-21T17:39:39.375Z,100878.16
2023-05-21T17:42:07.376Z,100870.81
2023-05-21T17:44:35.701Z,100871.84
2023-05-21T17:47:03.832Z,100869.44
2023-05-21T17:49:31.704Z,100873.38
2023-05-21T17:52:03.202Z,100865.72
2023-05-21T17:54:31.217Z,100874.19
2023-05-21T17:56:59.262Z,100881.97
2023-05-21T17:59:27.230Z,100876.25
2023-05-21T18:01:55.292Z,100862.63
2023-05-21T18:04:23.553Z,100866.53
2023-05-21T18:06:51.867Z,100863.38
2023-05-21T18:09:21.291Z,100871.00
2023-05-21T18:11:49.440Z,100868.81
2023-05-21T18:14:17.256Z,100871.22
2023-05-21T18:16:45.585Z,100870.31
2023-05-21T18:19:13.724Z,100872.91
2023-05-21T18:21:41.928Z,100881.28
2023-05-21T18:24:10.116Z,100877.66
2023-05-21T18:26:39.508Z,100882.28
2023-05-21T18:29:07.542Z,100879.75
2023-05-21T18:31:35.981Z,100880.59
2023-05-21T18:34:04.055Z,100878.81
2023-05-21T18:36:38.603Z,100877.38
2023-05-21T18:39:07.633Z,100875.88
2023-05-21T18:41:35.817Z,100882.19
2023-05-21T18:44:06.184Z,100879.66
2023-05-21T18:46:34.900Z,100884.75
2023-05-21T18:49:04.173Z,100882.97
2023-05-21T18:51:33.587Z,100879.38
2023-05-21T18:54:02.007Z,100879.25
2023-05-21T18:56:31.986Z,100881.16
2023-05-21T18:59:00.074Z,100881.88
2023-05-21T19:01:29.471Z,100889.69
2023-05-21T19:03:57.742Z,100885.91
2023-05-21T19:06:27.835Z,100890.41
2023-05-21T19:08:56.158Z,100884.03
2023-05-21T19:11:27.642Z,100877.50
2023-05-21T19:13:55.679Z,100879.16
2023-05-21T19:16:23.693Z,100883.41
2023-05-21T19:18:53.105Z,100882.69
2023-05-21T19:21:21.184Z,100887.16
2023-05-21T19:23:53.330Z,100892.22
2023-05-21T19:26:22.788Z,100888.84
2023-05-21T19:28:53.905Z,100893.41
2023-05-21T19:31:23.141Z,100889.31
2023-05-21T19:33:53.085Z,100886.28
2023-05-21T19:36:22.299Z,100890.34
2023-05-21T19:38:53.796Z,100890.78
2023-05-21T19:41:22.790Z,100887.91
2023-05-21T19:43:51.182Z,100888.50
2023-05-21T19:46:20.696Z,100884.84
2023-05-21T19:48:49.765Z,100887.69
2023-05-21T19:51:19.746Z,100886.75
2023-05-21T19:53:47.760Z,100894.47
2023-05-21T19:56:16.270Z,100896.53
2023-05-21T19:58:47.289Z,100895.25
2023-05-21T20:01:17.511Z,100902.34
2023-05-21T20:03:46.333Z,100899.56
2023-05-21T20:06:15.571Z,100895.38
2023-05-21T20:08:45.311Z,100893.34
2023-05-21T20:11:13.567Z,100902.16
2023-05-21T20:13:42.673Z,100895.19
2023-05-21T20:16:12.935Z,100909.09
2023-05-21T20:18:41.734Z,100912.78
2023-05-21T20:21:09.739Z,100911.16
2023-05-21T20:23:40.297Z,100910.53
2023-05-21T20:26:09.764Z,100916.44
2023-05-21T20:28:38.212Z,100907.19
2023-05-21T20:31:06.667Z,100909.22
2023-05-21T20:33:39.332Z,100911.66
2023-05-21T20:36:08.798Z,100912.09
2023-05-21T20:38:38.343Z,100908.00
2023-05-21T20:41:06.550Z,100913.25
2023-05-21T20:43:37.516Z,100910.72
2023-05-21T20:46:05.887Z,100909.97
2023-05-21T20:48:33.885Z,100902.06
2023-05-21T20:51:03.696Z,100914.16
2023-05-21T20:53:32.135Z,100910.72
2023-05-21T20:56:01.722Z,100919.78
2023-05-21T20:58:30.167Z,100910.34
2023-05-21T21:00:59.520Z,100916.31
2023-05-21T21:03:30.597Z,100909.72
2023-05-21T21:06:01.141Z,100916.94
2023-05-21T21:08:29.148Z,100918.88
2023-05-21T21:10:57.550Z,100908.22
2023-05-21T21:13:25.572Z,100912.19
2023-05-21T21:15:53.774Z,100915.75
2023-05-21T21:18:23.178Z,100913.91
2023-05-21T21:20:51.424Z,100912.97
2023-05-21T21:23:19.429Z,100914.03
2023-05-21T21:25:47.583Z,100919.31
2023-05-21T21:28:15.659Z,100908.13
2023-05-21T21:30:44.256Z,100909.25
2023-05-21T21:33:14.447Z,100910.88
2023-05-21T21:35:44.035Z,100919.63
2023-05-21T21:38:12.042Z,100926.13
2023-05-21T21:40:40.311Z,100918.50
2023-05-21T21:43:08.345Z,100922.97
2023-05-21T21:45:36.563Z,100918.69
2023-05-21T21:48:04.777Z,100920.41
2023-05-21T21:50:32.798Z,100920.22
2023-05-21T21:53:03.748Z,100928.56
2023-05-21T21:55:33.042Z,100921.75
2023-05-21T21:58:01.067Z,100922.25
2023-05-21T22:00:29.775Z,100918.97
2023-05-21T22:02:58.034Z,100916.16
2023-05-21T22:05:26.054Z,100921.72
2023-05-21T22:07:54.055Z,100924.22
2023-05-21T22:10:23.600Z,100915.75
2023-05-21T22:12:51.597Z,100920.19
2023-05-21T22:15:22.999Z,100909.50
2023-05-21T22:17:52.063Z,100908.22
2023-05-21T22:20:22.102Z,100913.69
2023-05-21T22:22:52.379Z,100925.22
2023-05-21T22:25:21.679Z,100919.78
2023-05-21T22:27:51.235Z,100916.75
2023-05-21T22:30:19.955Z,100920.91
2023-05-21T22:32:49.416Z,100923.69
2023-05-21T22:35:17.552Z,100925.31
2023-05-21T22:37:45.724Z,100920.97
2023-05-21T22:40:13.959Z,100919.06
2023-05-21T22:42:41.996Z,100912.78
2023-05-21T22:45:12.497Z,100926.53
2023-05-21T22:47:40.579Z,100922.66
2023-05-21T22:50:10.203Z,100924.91
2023-05-21T22:52:38.484Z,100925.44
2023-05-21T22:55:08.028Z,100927.91
2023-05-21T22:57:36.076Z,100936.44
2023-05-21T23:00:04.678Z,100933.97
2023-05-21T23:02:33.892Z,100931.22
2023-05-21T23:05:01.939Z,100935.31
2023-05-21T23:07:29.984Z,100925.72
2023-05-21T23:09:58.068Z,100928.44
2023-05-21T23:12:26.082Z,100926.25
2023-05-21T23:14:54.038Z,100929.81
2023-05-21T23:17:22.124Z,100927.63
2023-05-21T23:19:52.472Z,100926.53
2023-05-21T23:22:20.720Z,100921.59
2023-05-21T23:24:49.269Z,100915.56
2023-05-21T23:27:17.076Z,100917.47
2023-05-21T23:29:45.043Z,100910.63
2023-05-21T23:32:13.248Z,100905.97
2023-05-21T23:34:42.060Z,100912.53
2023-05-21T23:37:11.431Z,100906.72
2023-05-21T23:39:39.935Z,100910.00
2023-05-21T23:42:08.003Z,100907.50
2023-05-21T23:44:36.002Z,100909.41
2023-05-21T23:47:03.993Z,100911.03
2023-05-21T23:49:31.995Z,100919.81
2023-05-21T23:52:00.156Z,100911.56
2023-05-21T23:54:29.580Z,100911.22
2023-05-21T23:56:57.581Z,100925.72
2023-05-21T23:59:25.546Z,100915.56
